< Typhoon 196526 1965 Season Typhoon 196528 >
Typhoon 196527 (AGNES)
General InformationTrack Information on Google Maps || Disaster Info.ResourceGoogle EarthGE AnimationAtom FeedGeoJSON
Detalied Best Track (Time Zone = UTC)
Year Month Day Hour Lat. Long. Pressure (hPa) Wind (kt) Class Image Chart
1965 9 23 06 11.8 112.0 1006 0 2 -- Chart
1965 9 23 12 11.9 112.5 1006 0 2 -- Chart
1965 9 23 18 12.0 113.0 1006 0 2 -- Chart
1965 9 24 00 12.1 113.7 1006 0 2 -- Chart
1965 9 24 06 12.5 114.0 1004 0 2 -- Chart
1965 9 24 12 13.0 114.3 1004 0 2 -- Chart
1965 9 24 18 13.8 114.5 1000 0 2 -- Chart
1965 9 25 00 14.1 114.1 1000 0 2 -- Chart
1965 9 25 06 14.8 113.8 1000 0 2 -- Chart
1965 9 25 12 15.3 113.3 1000 0 2 -- Chart
1965 9 25 18 15.7 112.7 998 0 9 -- Chart
1965 9 26 00 17.0 112.6 996 0 9 -- Chart
1965 9 26 06 17.7 111.8 994 0 9 -- Chart
1965 9 26 12 18.6 111.8 994 0 9 -- Chart
1965 9 26 18 19.3 112.0 994 0 9 -- Chart
1965 9 27 00 20.0 112.0 992 0 9 -- Chart
1965 9 27 06 20.9 112.2 990 0 9 -- Chart
1965 9 27 12 21.4 111.8 990 0 9 -- Chart
1965 9 27 18 21.8 111.3 994 0 2 -- Chart
1965 9 28 00 22.0 111.0 998 0 2 -- Chart
1965 9 28 06 22.1 110.8 1000 0 2 -- Chart
1965 9 28 12 22.3 110.7 1002 0 2 -- Chart
1965 9 28 18 22.5 110.5 1004 0 2 -- Chart
1965 9 29 00 22.5 110.3 1006 0 2 -- Chart
1965 9 29 06 22.6 110.0 1006 0 2 -- Chart
1965 9 29 12 22.8 109.8 1008 0 2 -- Chart
Japan Meteorological Agency Best Track Data | Correction Date : 1989-06-01
< Typhoon 196526 1965 Season Typhoon 196528 >

Help